Here is the Quick Look data you requested

The Data originates at the National Weather Service, and is made available here by the UAlbany Department of Atmospheric and Environmental Sciences

Surface Observations

KCVG 250252Z 19005KT 10SM FEW050 17/13 A3000 RMK AO2 SLP154 T01670128 53009=
KCVG 250352Z 00000KT 10SM CLR 17/13 A3000 RMK AO2 SLP153 T01720128=
KCVG 250452Z 00000KT 10SM CLR 16/12 A3000 RMK AO2 SLP153 T01610122 402440139=
KCVG 250552Z 00000KT 10SM CLR 16/12 A3000 RMK AO2 SLP150 T01610122 10211 20156
 58002=
KCVG 250652Z 09003KT 10SM CLR 16/12 A2999 RMK AO2 SLP147 T01560122=
KCVG 250752Z 09003KT 10SM CLR 16/12 A2998 RMK AO2 SLP143 T01560122=
KCVG 250852Z 00000KT 10SM CLR 15/12 A2998 RMK AO2 SLP145 T01500117 55006=
KCVG 250952Z 02003KT 10SM FEW250 15/12 A2999 RMK AO2 SLP147 T01500122=
KCVG 251052Z 03005KT 10SM OVC034 15/13 A3000 RMK AO2 SLP153 BINOVC T01500128=
KCVG 251152Z 06005KT 9SM SCT032 16/13 A3001 RMK AO2 SLP155 T01560128 10161
 20144 52009=
KCVG 251252Z 04004KT 8SM FEW049 17/13 A3002 RMK AO2 SLP158 T01670133=
KCVG 251352Z 10007KT 10SM FEW050 SCT130 18/13 A3003 RMK AO2 SLP163 T01830133=
KCVG 251452Z 11006KT 10SM SCT039 BKN130 20/13 A3004 RMK AO2 SLP166 T02000128
 52010=
KCVG 251552Z 12007KT 10SM OVC041 21/13 A3004 RMK AO2 SLP165 BINOVC T02060133=
KCVG 251652Z 12007KT 10SM SCT047 BKN060 22/13 A3003 RMK AO2 SLP160 T02220133=
KCVG 251752Z VRB05KT 10SM FEW060 FEW140 24/14 A3000 RMK AO2 SLP152 T02390139
 10239 20156 58013=
KCVG 251852Z VRB04KT 10SM SCT035 26/14 A2998 RMK AO2 SLP144 T02560144=
KCVG 251952Z 15005KT 10SM SCT035 26/14 A2996 RMK AO2 SLP138 T02610144=
KCVG 252052Z 10SM SCT041 26/14 A2996 RMK AO2 SLP137 T02610144 56015=
KCVG 252052Z COR 150/05 10SM SCT041 26/14 A2996 RMK AO2 SLP137 T02610144 56015=
KCVG 252152Z 21006KT 10SM BKN043 26/15 A2996 RMK AO2 SLP137 T02610150=
KCVG 252252Z 23005KT 10SM FEW045 SCT055 24/15 A2997 RMK AO2 SLP141 T02440150=
KCVG 252352Z 22004KT 10SM FEW045 SCT055 22/16 A2997 RMK AO2 SLP143 T02170156
 10261 20217 53005=
KCVG 260052Z 19004KT 10SM BKN055 22/16 A2999 RMK AO2 SLP147 T02170156=
KCVG 260152Z 19005KT 10SM BKN055 22/16 A3000 RMK AO2 SLP150 T02170156=
KCVG 260252Z 17003KT 10SM BKN055 21/16 A3000 RMK AO2 SLP150 T02060156 50008=